aviador You're here:

KTOL Decoded Metar

TOLEDO in OH, USA
Report Time2017-11-24 08:52:00
UTC Time2017-11-24 09:14:23
Flight Rules vfr VFR
Wind190° at 05 kt
W.Decomp.*RWY 16: 4.1 kt HW 2.9 kt RCW
RWY 25: 2.9 kt HW 4.1 kt LCW
W.Rank190° ranks 10
Current wind is below 190° avg. (6.5)
Visibility9999 m
Phenomena:N/A
Clouds:N/A
Expected CloudBase > 800 ft AGL from Temp-Dew spread
CeilingNone
Temp-1°C (ISA -15)
Dew Point-3°C (86% RH)
AAT-5.2°C
QNH1013 hPa
Density Alt-1,030 ft
Elevation689 ft
Report Wrong Elevation
Raw Report
KTOL 240852Z 19005KT 10SM CLR M01/M03 A2991 RMK AO2 SLP135
T10061033 58013=

Extra information for KTOL:More info

Metar Taf Metar & Taf Last 4 Metars F.Rules Stats Wind Profile Meteogram Temp Stats Airport Information Weather charts Add Link Nearby VenuesMetar ALERT Operation Metar Decoded Social comments

AIRNAV info for KTOL